Latest Weather Observations for Gelantipy

IDV60801

Issued at 6:05 pm EST Thursday 24 April 2014 (issued every 30 minutes, with the page automatically refreshed every 10 minutes)

About weather observations | Map of weather stations | Latest weather observations for VIC | Other Formats
Station Details ID: 084142 Name: GELANTIPY Lat: -37.22 Lon: 148.26 Height: 755.0 m
Data from the previous 72 hours. | See also: Recent months at Gelantipy
Date/Time
EST
Temp
°C
App
Temp
°C
Dew
Point
Rel
Hum
%
Delta-T
°C
Wind Press
QNH
hPa
Press
MSL
hPa
Rain
since 9 am
mm
Dir
 
Spd
km/h
Gust
km/h
Spd
kts
Gust
kts
24/06:00pm 8.6 5.7 4.6 76 1.8 SSW 9 19 5 10 1018.7 1017.8 0.0
24/05:30pm 8.7 6.0 5.8 82 1.4 SSW 9 15 5 8 1018.0 - 0.0
24/05:00pm 8.9 6.1 7.0 88 0.9 S 11 17 6 9 1017.4 - 0.0
24/04:30pm 9.1 6.4 7.5 90 0.8 S 11 19 6 10 1016.9 - 0.0
24/04:00pm 9.3 6.3 7.7 90 0.8 S 13 24 7 13 1016.4 - 0.0
24/03:30pm 9.6 7.4 8.0 90 0.8 S 9 15 5 8 1015.9 - 0.0
24/03:00pm 9.4 6.5 8.2 92 0.6 S 13 19 7 10 1015.5 1014.6 0.0
24/02:30pm 9.5 7.0 8.3 92 0.6 S 11 17 6 9 1015.1 - 0.0
24/02:00pm 10.2 7.4 8.6 90 0.8 S 13 24 7 13 1014.9 - 0.0
24/01:30pm 10.8 7.6 8.4 85 1.2 S 15 28 8 15 1014.5 - 0.0
24/01:00pm 12.6 8.8 7.7 72 2.5 SSW 17 37 9 20 1013.9 - 0.0
24/12:30pm 15.8 10.1 6.5 54 4.7 W 26 43 14 23 1013.4 - 0.0
24/12:00pm 15.4 9.5 5.9 53 4.8 W 26 37 14 20 1013.4 1012.5 0.0
24/11:30am 15.2 9.3 5.7 53 4.7 WNW 26 43 14 23 1013.5 - 0.0
24/11:00am 14.8 8.1 5.6 54 4.6 W 30 43 16 23 1013.7 - 0.0
24/10:30am 15.0 10.2 5.8 54 4.6 W 20 32 11 17 1013.7 - 0.0
24/10:00am 14.8 9.9 5.1 52 4.8 WNW 20 37 11 20 1013.3 - 0.0
24/09:30am 14.4 9.4 4.7 52 4.7 WNW 20 28 11 15 1013.2 - 0.0
24/09:00am 13.6 9.2 5.0 56 4.2 W 17 22 9 12 1013.4 1012.5 0.0
24/08:30am 13.0 7.8 2.5 49 4.8 W 19 28 10 15 1013.2 - 0.0
24/08:00am 12.4 6.5 1.4 47 4.9 W 22 30 12 16 1012.7 - 0.0
24/07:30am 10.9 6.2 1.2 51 4.2 W 15 22 8 12 1012.5 - 0.0
24/07:00am 11.0 6.3 1.0 50 4.4 W 15 20 8 11 1011.9 - 0.0
24/06:30am 11.8 6.7 0.9 47 4.8 W 17 24 9 13 1011.6 - 0.0
24/06:00am 12.1 6.7 1.4 48 4.8 WNW 19 32 10 17 1011.1 1010.2 0.0
24/05:30am 12.8 6.8 1.2 45 5.2 W 22 32 12 17 1011.0 - 0.0
24/05:00am 12.3 7.3 1.3 47 4.9 WNW 17 28 9 15 1010.6 - 0.0
24/04:30am 12.4 8.4 0.8 45 5.1 WNW 11 24 6 13 1010.7 - 0.0
24/04:00am 11.7 9.1 3.0 55 4.0 ESE 6 9 3 5 1010.7 - 0.0
24/03:30am 10.5 8.0 4.0 64 3.0 NE 6 7 3 4 1010.8 - 0.0
24/03:00am 11.4 9.9 4.8 64 3.1 ENE 2 7 1 4 1011.1 1010.2 0.0
24/02:30am 11.5 9.3 5.4 66 2.9 NNE 6 7 3 4 1011.5 - 0.0
24/02:00am 10.7 8.2 6.6 76 2.0 NNE 9 13 5 7 1011.7 - 0.0
24/01:30am 11.0 7.7 6.4 73 2.3 NNE 13 17 7 9 1012.0 - 0.0
24/01:00am 11.7 8.5 6.8 72 2.4 NNE 13 20 7 11 1012.2 - 0.0
24/12:30am 11.1 7.5 6.6 74 2.2 NNE 15 20 8 11 1012.4 - 0.0
24/12:00am 10.0 6.7 6.3 78 1.8 NNE 13 15 7 8 1012.5 1011.6 0.0
 
Date/Time
EST
Temp
°C
App
Temp
°C
Dew
Point
Rel
Hum
%
Delta-T
°C
Wind Press
QNH
hPa
Press
MSL
hPa
Rain
since 9 am
mm
Dir
 
Spd
km/h
Gust
km/h
Spd
kts
Gust
kts
23/11:30pm 11.3 8.4 6.6 73 2.3 NE 11 13 6 7 1012.9 - 0.0
23/11:00pm 10.7 7.8 6.6 76 2.0 NNE 11 13 6 7 1013.3 - 0.0
23/10:30pm 10.9 8.0 6.6 75 2.1 NNE 11 15 6 8 1013.7 - 0.0
23/10:00pm 10.5 7.2 6.5 76 2.0 NNE 13 15 7 8 1013.8 - 0.0
23/09:30pm 10.8 8.0 6.9 77 1.9 N 11 13 6 7 1013.9 - 0.0
23/09:00pm 11.4 8.7 7.3 76 2.1 N 11 15 6 8 1014.3 1013.3 0.0
23/08:30pm 10.5 8.7 7.9 84 1.3 N 7 9 4 5 1014.4 - 0.0
23/08:00pm 10.7 10.5 10.4 98 0.2 NE 2 7 1 4 1014.6 - 0.0
23/07:30pm 10.9 9.7 10.4 97 0.3 N 7 9 4 5 1014.4 - 0.0
23/07:00pm 12.2 12.7 11.7 97 0.3 CALM 0 0 0 0 1014.5 - 0.0
23/06:30pm 12.5 12.4 12.0 97 0.3 S 4 7 2 4 1014.5 - 0.0
23/06:00pm 12.4 11.5 11.5 94 0.5 SW 7 11 4 6 1014.3 1013.3 0.0
23/05:30pm 14.1 12.0 8.3 68 3.0 WNW 9 13 5 7 1013.9 - 0.0
23/05:00pm 15.0 13.0 8.5 65 3.4 NW 9 15 5 8 1013.7 - 0.0
23/04:30pm 15.9 12.7 8.6 62 3.9 W 15 22 8 12 1013.5 - 0.0
23/04:00pm 17.0 13.5 8.9 59 4.3 W 17 24 9 13 1013.4 - 0.0
23/03:30pm 17.4 13.8 9.8 61 4.2 WNW 19 30 10 16 1013.4 - 0.0
23/03:00pm 17.2 13.4 8.9 58 4.5 WNW 19 32 10 17 1013.4 1012.5 0.0
23/02:30pm 17.5 13.4 8.6 56 4.8 W 20 39 11 21 1013.5 - 0.0
23/02:00pm 16.7 12.9 9.1 61 4.1 W 19 24 10 13 1013.7 - 0.0
23/01:30pm 16.9 13.5 9.1 60 4.2 W 17 26 9 14 1013.9 - 0.0
23/01:00pm 17.3 15.8 10.7 65 3.7 WSW 9 15 5 8 1013.9 - 0.0
23/12:30pm 16.6 15.7 11.5 72 2.9 S 7 11 4 6 1014.4 - 0.0
23/12:00pm 16.9 16.3 11.8 72 2.9 NW 6 9 3 5 1014.9 1014.0 0.0
23/11:30am 16.4 14.9 10.7 69 3.2 NNE 9 15 5 8 1015.1 - 0.0
23/11:00am 16.3 14.0 10.4 68 3.2 NE 13 19 7 10 1015.4 - 0.0
23/10:30am 15.6 13.3 10.4 71 2.8 ENE 13 17 7 9 1015.7 - 0.0
23/10:00am 15.0 11.8 10.0 72 2.7 NE 17 22 9 12 1015.9 - 0.0
23/09:30am 14.7 11.3 10.7 77 2.2 NNE 19 22 10 12 1016.2 - 0.0
23/09:00am 13.3 10.3 9.4 77 2.1 NNE 15 19 8 10 1016.3 1015.4 0.2
23/08:30am 11.6 8.7 9.5 87 1.1 N 15 19 8 10 1016.3 - 0.2
23/08:00am 9.2 6.3 8.3 94 0.5 NNE 13 15 7 8 1016.5 - 0.2
23/07:30am 9.1 5.9 8.5 96 0.3 N 15 17 8 9 1016.4 - 0.2
23/07:00am 8.2 6.9 7.8 97 0.2 ENE 4 9 2 5 1016.2 - 0.2
23/06:30am 8.2 6.4 7.8 97 0.2 N 7 9 4 5 1016.1 - 0.2
23/06:00am 8.9 6.5 8.8 99 0.1 N 11 13 6 7 1016.1 1015.2 0.2
23/05:30am 9.6 7.8 9.5 99 0.1 N 9 11 5 6 1016.2 - 0.2
23/05:00am 9.8 8.6 9.7 99 0.1 NNW 6 7 3 4 1016.6 - 0.2
23/04:30am 9.8 9.7 9.3 97 0.3 CALM 0 0 0 0 1016.4 - 0.2
23/04:00am 9.9 9.8 9.4 97 0.3 CALM 0 0 0 0 1016.7 - 0.2
23/03:30am 10.0 9.9 9.5 97 0.3 CALM 0 2 0 1 1016.6 - 0.2
23/03:00am 10.1 10.0 9.6 97 0.3 CALM 0 0 0 0 1016.7 1015.8 0.2
23/02:30am 10.1 10.0 9.6 97 0.3 CALM 0 0 0 0 1016.8 - 0.2
23/02:00am 10.2 10.2 9.7 97 0.3 CALM 0 6 0 3 1017.1 - 0.2
23/01:30am 10.2 10.2 9.7 97 0.3 CALM 0 0 0 0 1017.3 - 0.2
23/01:00am 10.0 9.2 9.5 97 0.3 NW 4 7 2 4 1017.5 - 0.2
23/12:30am 10.3 10.4 10.0 98 0.2 CALM 0 0 0 0 1017.9 - 0.2
23/12:00am 10.4 9.7 10.1 98 0.2 W 4 7 2 4 1018.0 1017.2 0.0
 
Date/Time
EST
Temp
°C
App
Temp
°C
Dew
Point
Rel
Hum
%
Delta-T
°C
Wind Press
QNH
hPa
Press
MSL
hPa
Rain
since 9 am
mm
Dir
 
Spd
km/h
Gust
km/h
Spd
kts
Gust
kts
22/11:30pm 10.3 9.2 10.0 98 0.2 SW 6 7 3 4 1018.0 - 0.0
22/11:00pm 10.3 9.2 10.0 98 0.2 W 6 9 3 5 1017.9 - 0.0
22/10:30pm 10.4 10.0 9.9 97 0.3 WSW 2 11 1 6 1017.9 - 0.0
22/10:00pm 10.9 9.8 10.1 95 0.4 SSW 6 9 3 5 1017.9 - 0.0
22/09:30pm 11.3 10.3 10.4 94 0.5 SE 6 6 3 3 1017.8 - 0.0
22/09:00pm 11.8 11.2 10.5 92 0.7 WSW 4 9 2 5 1017.7 1016.8 0.0
22/08:30pm 12.6 11.5 10.1 85 1.3 S 6 7 3 4 1017.4 - 0.0
22/08:00pm 13.2 11.7 9.1 76 2.2 S 7 11 4 6 1017.4 - 0.0
22/07:30pm 13.5 11.9 7.9 69 2.9 NNE 6 9 3 5 1017.2 - 0.0
22/07:00pm 14.4 13.4 7.5 63 3.5 WNW 2 6 1 3 1016.9 - 0.0
22/06:30pm 14.4 11.8 7.7 64 3.5 WNW 11 15 6 8 1016.5 - 0.0
22/06:00pm 15.5 13.5 7.0 57 4.4 NW 7 9 4 5 1016.1 1015.2 0.0
22/05:30pm 15.8 13.9 7.6 58 4.3 WNW 7 13 4 7 1015.8 - 0.0
22/05:00pm 17.2 15.4 7.8 54 4.9 NW 7 13 4 7 1015.4 - 0.0
22/04:30pm 17.8 15.7 8.4 54 5.0 NNW 9 17 5 9 1015.2 - 0.0
22/04:00pm 16.7 14.4 7.4 54 4.8 NNW 9 17 5 9 1015.2 - 0.0
22/03:30pm 16.4 14.1 8.9 61 4.0 NNW 11 15 6 8 1015.5 - 0.0
22/03:00pm 16.8 13.4 7.7 55 4.8 N 15 22 8 12 1015.7 1014.8 0.0
22/02:30pm 18.2 15.4 8.5 53 5.2 NNW 13 22 7 12 1015.7 - 0.0
22/02:00pm 18.4 13.3 9.2 55 5.0 NW 26 35 14 19 1015.9 - 0.0
22/01:30pm 18.8 13.8 8.2 50 5.7 WNW 24 39 13 21 1016.0 - 0.0
22/01:00pm 18.9 14.6 7.7 48 5.9 NNW 20 30 11 16 1016.3 - 0.0
22/12:30pm 18.9 15.1 7.4 47 6.1 NNW 17 28 9 15 1016.7 - 0.0
22/12:00pm 19.2 15.4 9.1 52 5.5 WNW 19 32 10 17 1016.7 1015.8 0.0
22/11:30am 19.3 15.5 8.9 51 5.7 WNW 19 28 10 15 1016.9 - 0.0
22/11:00am 16.4 11.8 5.4 48 5.5 NW 19 28 10 15 1016.9 - 0.0
22/10:30am 15.9 11.0 4.3 46 5.6 NW 19 30 10 16 1017.2 - 0.0
22/10:00am 16.0 10.5 3.8 44 5.9 NNW 22 35 12 19 1017.2 - 0.0
22/09:30am 15.7 9.6 0.3 35 6.9 NNW 22 33 12 18 1017.5 - 0.0
22/09:00am 15.4 8.8 -0.4 34 6.9 NNW 24 35 13 19 1017.6 1016.7 0.0
22/08:30am 15.5 8.1 -0.7 33 7.1 NNW 28 41 15 22 1017.5 - 0.0
22/08:00am 15.8 9.1 -0.8 32 7.3 NNW 24 37 13 20 1017.5 - 0.0
22/07:30am 16.0 9.7 -0.7 32 7.3 NNW 22 37 12 20 1017.2 - 0.0
22/07:00am 16.0 9.6 -1.5 30 7.5 NNW 22 35 12 19 1016.8 - 0.0
22/06:30am 16.4 9.7 -0.8 31 7.6 NNW 24 35 13 19 1016.5 - 0.0
22/06:00am 16.2 10.0 -0.5 32 7.4 NNW 22 32 12 17 1016.4 1015.5 0.0
22/05:30am 16.1 10.4 0.7 35 7.0 NNW 20 30 11 16 1016.3 - 0.0
22/05:00am 16.1 11.9 1.8 38 6.6 NNW 13 28 7 15 1016.3 - 0.0
22/04:30am 13.6 10.5 3.7 51 4.7 N 9 15 5 8 1016.2 - 0.0
22/04:00am 12.0 7.6 4.5 60 3.6 NNE 17 20 9 11 1016.2 - 0.0
22/03:30am 12.2 7.4 4.4 59 3.7 N 19 20 10 11 1016.2 - 0.0
22/03:00am 12.3 8.2 4.5 59 3.7 N 15 17 8 9 1016.4 1015.5 0.0
22/02:30am 12.5 8.5 4.7 59 3.7 N 15 17 8 9 1016.6 - 0.0
22/02:00am 12.0 7.3 5.0 62 3.4 N 19 20 10 11 1017.1 - 0.0
22/01:30am 11.8 7.0 4.8 62 3.3 N 19 22 10 12 1017.2 - 0.0
22/01:00am 11.8 6.8 4.8 62 3.3 N 20 26 11 14 1017.4 - 0.0
22/12:30am 11.1 6.1 4.8 65 3.0 N 20 26 11 14 1017.4 - 0.0
22/12:00am 10.3 5.5 4.9 69 2.5 N 19 22 10 12 1017.4 1016.5 0.0
 
Date/Time
EST
Temp
°C
App
Temp
°C
Dew
Point
Rel
Hum
%
Delta-T
°C
Wind Press
QNH
hPa
Press
MSL
hPa
Rain
since 9 am
mm
Dir
 
Spd
km/h
Gust
km/h
Spd
kts
Gust
kts
21/11:30pm 10.6 4.8 4.3 65 2.9 N 24 26 13 14 1017.6 - 0.0
21/11:00pm 10.9 5.1 4.4 64 3.0 N 24 28 13 15 1017.6 - 0.0
21/10:30pm 11.0 5.2 4.5 64 3.1 N 24 28 13 15 1017.8 - 0.0
21/10:00pm 10.8 5.0 4.5 65 3.0 N 24 30 13 16 1018.1 - 0.0
21/09:30pm 11.3 5.4 3.8 60 3.5 N 24 30 13 16 1018.1 - 0.0
21/09:00pm 11.3 5.4 4.1 61 3.4 N 24 28 13 15 1018.2 1017.4 0.0
21/08:30pm 11.2 5.7 4.0 61 3.4 N 22 28 12 15 1018.2 - 0.0
21/08:00pm 11.1 6.3 4.6 64 3.1 N 19 22 10 12 1018.2 - 0.0
21/07:30pm 11.3 6.6 5.0 65 3.0 N 19 20 10 11 1018.2 - 0.0
21/07:00pm 11.2 7.3 5.5 68 2.7 N 15 19 8 10 1018.2 - 0.0
21/06:30pm 10.9 7.2 6.1 72 2.3 N 15 19 8 10 1018.1 - 0.0

Other Formats:

Comma delimited format used in spreadsheet applications
http://www.bom.gov.au/fwo/IDV60801/IDV60801.94913.axf

JavaScript Object Notation format (JSON) in row-major order
http://www.bom.gov.au/fwo/IDV60801/IDV60801.94913.json